Floral Park, NY

11:19 AM EDT en Agosto 23, 2014 (GMT -0400)
La Guardia | Change Station
CLOSE
Current Station
Aeropuerto
Location: New York,
Altura: 30 ft
Estaciones meteorológicas cercanas

Alt 30 ft 40.78 °N, 73.88 °W | Updated 28 minutes ago

Mostly Cloudy
Muy nublado
72 ° F
Sensación térmica 72 ° F
N
14
Viento Variable Viento desde NE

Hoy
Alta -- | Baja -- ° F
--% Posibilidad de precipitaciones
Ayer
Alta -- | Baja -- ° F
Precip. -- pul
6:12 AM 7:41 PM
Creciente menguante, 3% visible
Presión 30.10 pul
Visibilidad 10.0 Millas
Nubes Baja 2400 ft
Muy nublado 2800 ft
Muy nublado 14000 ft
Punto de rocío 61 ° F
Humedad 69%
Precipitaciones 0.00 pul
Espesor de la nieve No disponible.
UV 4 de una escala de 12
Polen 6.40 de una escala de 12
Calidad del aire No disponible.
Flu Activity No disponible.
METAR KLGA 231451Z 05012KT 10SM FEW024 BKN028 BKN140 22/16 A3010

More Conditions Fewer Conditions

Presión 30.10 pul
Visibilidad 10.0 Millas
Nubes Baja 2400 ft
Muy nublado 2800 ft
Muy nublado 14000 ft
Punto de rocío 61 ° F
Humedad 69%
Precipitaciones 0.00 pul
Espesor de la nieve No disponible.
UV 4 de una escala de 12
Polen 6.40 de una escala de 12
Calidad del aire No disponible.
Flu Activity No disponible.
METAR KLGA 231451Z 05012KT 10SM FEW024 BKN028 BKN140 22/16 A3010

More Conditions Fewer Conditions

10-Day Weather Forecast

Almanac

Astronomía

Aug. 23, 2014 Salida Puesta
Hora real 6:12 AM EDT 7:41 PM EDT
Crepúsculo civil 5:44 AM EDT 8:09 PM EDT
Crepúsculo náutico 5:09 AM EDT 8:44 PM EDT
Crepúsculo astronómico 4:32 AM EDT 9:20 PM EDT
Luna 4:26 AM EDT 6:24 PM EDT
Horas de luz 14h 25m
Horas de luz
13h 28m
Tomorrow will be 2m 30s shorter.
Creciente menguante, 3% of the Moon is Illuminated
Hoy
Creciente menguante
Ago 25
Nueva
Sep 2
Cuarto creciente
Sep 8
Luna llena
Sep 15
Cuarto menguante

Extremos de hoy

Máximos del estado Bajos del estado

Community

WunderPhotos

Upload Photos

1,746,489 ¡fotos cargadas!

WunderBlogs® & News

By Dr. Jeff Masters
Director of Meteorology, Weather Underground
By Kari Strenfel
Meteorologist, Weather Underground
By Christopher C. Burt
Weather Historian, Weather Underground
August 23, 2014
August 23, 2014
August 23, 2014

Nearby

Grosos de nieve

Estación Profundido Altura
No tenemos constancia de nieve nueva.

Actividad de terremotos

Ciudad Distance Mag. Tiempo y dato
No hay informes recientes de la actividad sísmica.
Magnitud mínima muestra es 2,5.

Temperaturas de aguas costeras

Lugar Temperatura
Bridgeport, CT 73.9 ° F

Estaciones meteorológicas cercanas